sensor_id;sensor_type;location;lat;lon;timestamp;pressure;altitude;pressure_sealevel;temperature;humidity
30682;BME280;17439;48.092;11.842;2023-07-29T00:00:00;95167.13;;;19.62;69.65
30682;BME280;17439;48.092;11.842;2023-07-29T00:02:27;95159.25;;;19.60;69.64
30682;BME280;17439;48.092;11.842;2023-07-29T00:04:53;95165.53;;;19.61;69.41
30682;BME280;17439;48.092;11.842;2023-07-29T00:07:20;95155.31;;;19.61;69.08
30682;BME280;17439;48.092;11.842;2023-07-29T00:09:46;95153.38;;;19.62;69.16
30682;BME280;17439;48.092;11.842;2023-07-29T00:12:13;95154.16;;;19.62;69.11
30682;BME280;17439;48.092;11.842;2023-07-29T00:14:40;95146.69;;;19.63;69.32
30682;BME280;17439;48.092;11.842;2023-07-29T00:17:06;95151.03;;;19.64;69.32
30682;BME280;17439;48.092;11.842;2023-07-29T00:19:33;95152.63;;;19.65;69.65
30682;BME280;17439;48.092;11.842;2023-07-29T00:22:00;95146.75;;;19.66;69.50
30682;BME280;17439;48.092;11.842;2023-07-29T00:24:27;95145.19;;;19.69;69.57
30682;BME280;17439;48.092;11.842;2023-07-29T00:26:53;95148.34;;;19.71;69.81
30682;BME280;17439;48.092;11.842;2023-07-29T00:29:20;95144.44;;;19.72;69.63
30682;BME280;17439;48.092;11.842;2023-07-29T00:31:47;95146.81;;;19.73;69.58
30682;BME280;17439;48.092;11.842;2023-07-29T00:34:13;95152.31;;;19.73;69.42
30682;BME280;17439;48.092;11.842;2023-07-29T00:36:41;95147.59;;;19.74;69.39
30682;BME280;17439;48.092;11.842;2023-07-29T00:39:07;95149.19;;;19.75;69.20
30682;BME280;17439;48.092;11.842;2023-07-29T00:41:35;95148.41;;;19.74;69.12
30682;BME280;17439;48.092;11.842;2023-07-29T00:44:02;95147.59;;;19.74;69.12
30682;BME280;17439;48.092;11.842;2023-07-29T00:46:29;95146.03;;;19.73;69.14
30682;BME280;17439;48.092;11.842;2023-07-29T00:48:56;95142.84;;;19.71;69.05
30682;BME280;17439;48.092;11.842;2023-07-29T00:51:23;95139.69;;;19.69;69.08
30682;BME280;17439;48.092;11.842;2023-07-29T00:53:50;95145.19;;;19.69;69.26
30682;BME280;17439;48.092;11.842;2023-07-29T00:56:16;95136.13;;;19.65;69.10
30682;BME280;17439;48.092;11.842;2023-07-29T00:58:44;95143.19;;;19.66;69.24
30682;BME280;17439;48.092;11.842;2023-07-29T01:01:12;95136.91;;;19.65;69.25
30682;BME280;17439;48.092;11.842;2023-07-29T01:03:39;95136.13;;;19.65;69.08
30682;BME280;17439;48.092;11.842;2023-07-29T01:09:04;95141.63;;;19.65;69.24
30682;BME280;17439;48.092;11.842;2023-07-29T01:11:41;95134.16;;;19.65;68.86
30682;BME280;17439;48.092;11.842;2023-07-29T01:17:00;95129.06;;;19.67;69.38
30682;BME280;17439;48.092;11.842;2023-07-29T01:19:55;95129.88;;;19.68;68.46
30682;BME280;17439;48.092;11.842;2023-07-29T01:22:26;95132.63;;;19.68;69.77
30682;BME280;17439;48.092;11.842;2023-07-29T01:24:53;95131.44;;;19.69;69.50
30682;BME280;17439;48.092;11.842;2023-07-29T01:27:20;95130.28;;;19.70;69.26
30682;BME280;17439;48.092;11.842;2023-07-29T01:29:47;95131.06;;;19.70;68.96
30682;BME280;17439;48.092;11.842;2023-07-29T01:32:19;95126.75;;;19.69;68.71
30682;BME280;17439;48.092;11.842;2023-07-29T01:35:21;95122.38;;;19.65;68.15
30682;BME280;17439;48.092;11.842;2023-07-29T01:37:53;95113.31;;;19.64;68.62
30682;BME280;17439;48.092;11.842;2023-07-29T01:40:23;95109.78;;;19.64;68.59
30682;BME280;17439;48.092;11.842;2023-07-29T01:42:51;95119.19;;;19.63;68.88
30682;BME280;17439;48.092;11.842;2023-07-29T01:45:18;95114.44;;;19.60;68.87
30682;BME280;17439;48.092;11.842;2023-07-29T01:47:45;95106.97;;;19.56;68.66
30682;BME280;17439;48.092;11.842;2023-07-29T01:50:14;95110.47;;;19.53;68.79
30682;BME280;17439;48.092;11.842;2023-07-29T01:52:40;95108.50;;;19.50;68.73
30682;BME280;17439;48.092;11.842;2023-07-29T01:55:07;95114.75;;;19.47;68.56
30682;BME280;17439;48.092;11.842;2023-07-29T01:57:34;95108.41;;;19.43;68.73
30682;BME280;17439;48.092;11.842;2023-07-29T02:00:01;95108.78;;;19.42;68.90
30682;BME280;17439;48.092;11.842;2023-07-29T02:02:39;95108.75;;;19.38;68.70
30682;BME280;17439;48.092;11.842;2023-07-29T02:05:06;95111.09;;;19.36;69.08
30682;BME280;17439;48.092;11.842;2023-07-29T02:07:33;95106.34;;;19.33;68.80
30682;BME280;17439;48.092;11.842;2023-07-29T02:10:00;95102.00;;;19.32;68.99
30682;BME280;17439;48.092;11.842;2023-07-29T02:12:27;95096.09;;;19.30;69.01
30682;BME280;17439;48.092;11.842;2023-07-29T02:14:53;95093.72;;;19.28;68.74
30682;BME280;17439;48.092;11.842;2023-07-29T02:17:20;95092.13;;;19.27;69.06
30682;BME280;17439;48.092;11.842;2023-07-29T02:19:47;95106.25;;;19.26;68.82
30682;BME280;17439;48.092;11.842;2023-07-29T02:22:15;95092.88;;;19.24;68.83
30682;BME280;17439;48.092;11.842;2023-07-29T02:24:42;95088.53;;;19.23;68.84
30682;BME280;17439;48.092;11.842;2023-07-29T02:27:09;95088.91;;;19.21;68.66
30682;BME280;17439;48.092;11.842;2023-07-29T02:29:35;95085.75;;;19.19;68.67
30682;BME280;17439;48.092;11.842;2023-07-29T02:32:02;95088.09;;;19.17;68.52
30682;BME280;17439;48.092;11.842;2023-07-29T02:34:30;95098.69;;;19.15;68.57
30682;BME280;17439;48.092;11.842;2023-07-29T02:36:56;95091.97;;;19.13;68.20
30682;BME280;17439;48.092;11.842;2023-07-29T02:39:23;95099.00;;;19.10;68.38
30682;BME280;17439;48.092;11.842;2023-07-29T02:41:50;95106.03;;;19.08;68.12
30682;BME280;17439;48.092;11.842;2023-07-29T02:44:17;95102.06;;;19.05;68.28
30682;BME280;17439;48.092;11.842;2023-07-29T02:46:44;95095.78;;;19.01;68.37
30682;BME280;17439;48.092;11.842;2023-07-29T02:49:11;95107.50;;;18.98;68.53
30682;BME280;17439;48.092;11.842;2023-07-29T02:51:37;95109.03;;;18.95;68.37
30682;BME280;17439;48.092;11.842;2023-07-29T02:54:04;95118.78;;;18.93;68.62
30682;BME280;17439;48.092;11.842;2023-07-29T02:56:31;95117.97;;;18.89;68.68
30682;BME280;17439;48.092;11.842;2023-07-29T02:58:57;95112.84;;;18.87;68.61
30682;BME280;17439;48.092;11.842;2023-07-29T03:01:24;95117.13;;;18.84;68.64
30682;BME280;17439;48.092;11.842;2023-07-29T03:03:51;95116.69;;;18.82;68.94
30682;BME280;17439;48.092;11.842;2023-07-29T03:06:18;95120.56;;;18.81;68.84
30682;BME280;17439;48.092;11.842;2023-07-29T03:08:45;95120.53;;;18.78;68.65
30682;BME280;17439;48.092;11.842;2023-07-29T03:11:14;95115.03;;;18.78;68.48
30682;BME280;17439;48.092;11.842;2023-07-29T03:13:41;95109.94;;;18.76;68.54
30682;BME280;17439;48.092;11.842;2023-07-29T03:16:11;95115.00;;;18.74;68.71
30682;BME280;17439;48.092;11.842;2023-07-29T03:18:39;95108.69;;;18.74;68.73
30682;BME280;17439;48.092;11.842;2023-07-29T03:21:06;95102.81;;;18.72;68.54
30682;BME280;17439;48.092;11.842;2023-07-29T03:23:34;95108.66;;;18.70;68.90
30682;BME280;17439;48.092;11.842;2023-07-29T03:26:02;95117.69;;;18.71;68.88
30682;BME280;17439;48.092;11.842;2023-07-29T03:28:32;95111.41;;;18.70;69.09
30682;BME280;17439;48.092;11.842;2023-07-29T03:30:59;95103.16;;;18.70;69.17
30682;BME280;17439;48.092;11.842;2023-07-29T03:33:26;95100.06;;;18.72;69.50
30682;BME280;17439;48.092;11.842;2023-07-29T03:35:53;95100.06;;;18.72;69.32
30682;BME280;17439;48.092;11.842;2023-07-29T03:38:20;95116.91;;;18.70;69.29
30682;BME280;17439;48.092;11.842;2023-07-29T03:40:47;95113.38;;;18.70;69.50
30682;BME280;17439;48.092;11.842;2023-07-29T03:43:13;95109.06;;;18.72;69.71
30682;BME280;17439;48.092;11.842;2023-07-29T03:45:41;95111.03;;;18.72;69.54
30682;BME280;17439;48.092;11.842;2023-07-29T03:48:07;95109.50;;;18.74;69.73
30682;BME280;17439;48.092;11.842;2023-07-29T03:50:35;95100.09;;;18.75;69.64
30682;BME280;17439;48.092;11.842;2023-07-29T03:53:03;95106.41;;;18.76;69.81
30682;BME280;17439;48.092;11.842;2023-07-29T03:55:30;95106.44;;;18.79;70.04
30682;BME280;17439;48.092;11.842;2023-07-29T03:58:00;95100.19;;;18.82;70.28
30682;BME280;17439;48.092;11.842;2023-07-29T04:00:27;95110.88;;;18.88;70.08
30682;BME280;17439;48.092;11.842;2023-07-29T04:02:54;95109.34;;;18.90;70.18
30682;BME280;17439;48.092;11.842;2023-07-29T04:05:21;95109.81;;;18.96;70.26
30682;BME280;17439;48.092;11.842;2023-07-29T04:07:48;95103.19;;;19.00;70.61
30682;BME280;17439;48.092;11.842;2023-07-29T04:10:15;95111.09;;;19.06;70.59
30682;BME280;17439;48.092;11.842;2023-07-29T04:12:43;95112.72;;;19.10;70.42
30682;BME280;17439;48.092;11.842;2023-07-29T04:15:09;95120.22;;;19.13;70.71
30682;BME280;17439;48.092;11.842;2023-07-29T04:17:36;95118.72;;;19.19;70.66
30682;BME280;17439;48.092;11.842;2023-07-29T04:20:04;95103.09;;;19.24;70.54
30682;BME280;17439;48.092;11.842;2023-07-29T04:22:33;95106.28;;;19.29;70.29
30682;BME280;17439;48.092;11.842;2023-07-29T04:25:00;95100.84;;;19.33;70.42
30682;BME280;17439;48.092;11.842;2023-07-29T04:27:26;95100.13;;;19.39;70.29
30682;BME280;17439;48.092;11.842;2023-07-29T04:29:53;95094.66;;;19.43;69.99
30682;BME280;17439;48.092;11.842;2023-07-29T04:32:20;95086.81;;;19.45;69.87
30682;BME280;17439;48.092;11.842;2023-07-29T04:34:47;95075.88;;;19.49;69.91
30682;BME280;17439;48.092;11.842;2023-07-29T04:37:13;95062.53;;;19.51;69.68
30682;BME280;17439;48.092;11.842;2023-07-29T04:39:40;95070.41;;;19.52;69.73
30682;BME280;17439;48.092;11.842;2023-07-29T04:42:07;95062.56;;;19.54;69.95
30682;BME280;17439;48.092;11.842;2023-07-29T04:44:34;95059.06;;;19.57;70.16
30682;BME280;17439;48.092;11.842;2023-07-29T04:47:01;95062.22;;;19.60;70.02
30682;BME280;17439;48.092;11.842;2023-07-29T04:49:28;95065.81;;;19.64;70.11
30682;BME280;17439;48.092;11.842;2023-07-29T04:51:55;95065.03;;;19.67;70.06
30682;BME280;17439;48.092;11.842;2023-07-29T04:54:22;95060.34;;;19.71;70.13
30682;BME280;17439;48.092;11.842;2023-07-29T04:56:49;95063.94;;;19.75;70.20
30682;BME280;17439;48.092;11.842;2023-07-29T04:59:16;95069.13;;;19.80;70.67
30682;BME280;17439;48.092;11.842;2023-07-29T05:01:43;95065.66;;;19.87;70.54
30682;BME280;17439;48.092;11.842;2023-07-29T05:04:10;95067.25;;;19.91;70.48
30682;BME280;17439;48.092;11.842;2023-07-29T05:06:37;95067.72;;;20.01;70.36
30682;BME280;17439;48.092;11.842;2023-07-29T05:09:18;95063.03;;;20.05;69.53
30682;BME280;17439;48.092;11.842;2023-07-29T05:11:45;95065.44;;;20.14;70.36
30682;BME280;17439;48.092;11.842;2023-07-29T05:14:16;95066.28;;;20.21;69.73
30682;BME280;17439;48.092;11.842;2023-07-29T05:16:44;95059.66;;;20.29;70.24
30682;BME280;17439;48.092;11.842;2023-07-29T05:19:11;95056.97;;;20.37;70.58
30682;BME280;17439;48.092;11.842;2023-07-29T05:21:39;95053.09;;;20.45;70.35
30682;BME280;17439;48.092;11.842;2023-07-29T05:24:06;95054.31;;;20.55;70.64
30682;BME280;17439;48.092;11.842;2023-07-29T05:26:33;95042.97;;;20.63;70.62
30682;BME280;17439;48.092;11.842;2023-07-29T05:29:00;95050.91;;;20.72;70.05
30682;BME280;17439;48.092;11.842;2023-07-29T05:31:28;95042.28;;;20.81;70.15
30682;BME280;17439;48.092;11.842;2023-07-29T05:33:55;95039.94;;;20.90;70.16
30682;BME280;17439;48.092;11.842;2023-07-29T05:36:22;95028.19;;;21.00;70.16
30682;BME280;17439;48.092;11.842;2023-07-29T05:38:49;95036.88;;;21.10;69.57
30682;BME280;17439;48.092;11.842;2023-07-29T05:41:16;95039.66;;;21.17;69.50
30682;BME280;17439;48.092;11.842;2023-07-29T05:43:43;95032.19;;;21.25;69.21
30682;BME280;17439;48.092;11.842;2023-07-29T05:46:10;95041.28;;;21.32;69.16
30682;BME280;17439;48.092;11.842;2023-07-29T05:48:37;95037.75;;;21.39;68.81
30682;BME280;17439;48.092;11.842;2023-07-29T05:51:03;95044.84;;;21.44;68.44
30682;BME280;17439;48.092;11.842;2023-07-29T05:53:31;95049.59;;;21.50;68.34
30682;BME280;17439;48.092;11.842;2023-07-29T05:55:57;95051.19;;;21.55;68.71
30682;BME280;17439;48.092;11.842;2023-07-29T05:58:24;95049.63;;;21.61;68.30
30682;BME280;17439;48.092;11.842;2023-07-29T06:00:51;95050.81;;;21.67;68.71
30682;BME280;17439;48.092;11.842;2023-07-29T06:03:19;95061.47;;;21.72;68.54
30682;BME280;17439;48.092;11.842;2023-07-29T06:05:46;95048.47;;;21.77;67.87
30682;BME280;17439;48.092;11.842;2023-07-29T06:08:13;95057.53;;;21.81;66.55
30682;BME280;17439;48.092;11.842;2023-07-29T06:10:40;95059.91;;;21.86;67.05
30682;BME280;17439;48.092;11.842;2023-07-29T06:13:06;95062.28;;;21.91;67.23
30682;BME280;17439;48.092;11.842;2023-07-29T06:15:33;95067.00;;;21.94;67.36
30682;BME280;17439;48.092;11.842;2023-07-29T06:18:00;95066.22;;;21.97;67.02
30682;BME280;17439;48.092;11.842;2023-07-29T06:20:27;95074.50;;;22.01;66.58
30682;BME280;17439;48.092;11.842;2023-07-29T06:22:55;95102.47;;;21.99;66.50
30682;BME280;17439;48.092;11.842;2023-07-29T06:25:21;95119.81;;;22.00;66.56
30682;BME280;17439;48.092;11.842;2023-07-29T06:27:48;95133.63;;;21.96;66.08
30682;BME280;17439;48.092;11.842;2023-07-29T06:30:15;95113.91;;;21.90;66.15
30682;BME280;17439;48.092;11.842;2023-07-29T06:32:42;95099.31;;;21.83;66.77
30682;BME280;17439;48.092;11.842;2023-07-29T06:35:08;95082.34;;;21.77;67.18
30682;BME280;17439;48.092;11.842;2023-07-29T06:37:35;95061.47;;;21.72;67.61
30682;BME280;17439;48.092;11.842;2023-07-29T06:40:02;95057.53;;;21.70;68.12
30682;BME280;17439;48.092;11.842;2023-07-29T06:42:29;95048.06;;;21.64;68.14
30682;BME280;17439;48.092;11.842;2023-07-29T06:44:56;95049.63;;;21.61;68.38
30682;BME280;17439;48.092;11.842;2023-07-29T06:47:22;95041.75;;;21.60;69.08
30682;BME280;17439;48.092;11.842;2023-07-29T06:49:49;95061.06;;;21.56;69.04
30682;BME280;17439;48.092;11.842;2023-07-29T06:52:16;95067.34;;;21.56;69.63
30682;BME280;17439;48.092;11.842;2023-07-29T06:54:43;95090.22;;;21.57;69.64
30682;BME280;17439;48.092;11.842;2023-07-29T06:57:09;95086.66;;;21.60;70.56
30682;BME280;17439;48.092;11.842;2023-07-29T06:59:36;95098.50;;;21.64;70.95
30682;BME280;17439;48.092;11.842;2023-07-29T07:02:03;95115.84;;;21.68;70.84
30682;BME280;17439;48.092;11.842;2023-07-29T07:04:29;95127.28;;;21.70;70.96
30682;BME280;17439;48.092;11.842;2023-07-29T07:06:56;95131.22;;;21.73;70.12
30682;BME280;17439;48.092;11.842;2023-07-29T07:09:23;95136.31;;;21.71;69.48
30682;BME280;17439;48.092;11.842;2023-07-29T07:11:49;95120.16;;;21.69;68.82
30682;BME280;17439;48.092;11.842;2023-07-29T07:14:16;95124.47;;;21.63;68.53
30682;BME280;17439;48.092;11.842;2023-07-29T07:16:43;95140.63;;;21.61;68.60
30682;BME280;17439;48.092;11.842;2023-07-29T07:19:10;95141.03;;;21.56;68.40
30682;BME280;17439;48.092;11.842;2023-07-29T07:21:37;95140.22;;;21.52;68.79
30682;BME280;17439;48.092;11.842;2023-07-29T07:24:04;95134.69;;;21.52;68.88
30682;BME280;17439;48.092;11.842;2023-07-29T07:26:31;95139.44;;;21.51;68.92
30682;BME280;17439;48.092;11.842;2023-07-29T07:28:57;95131.50;;;21.46;69.03
30682;BME280;17439;48.092;11.842;2023-07-29T07:31:24;95132.28;;;21.47;68.99
30682;BME280;17439;48.092;11.842;2023-07-29T07:33:51;95133.47;;;21.46;69.39
30682;BME280;17439;48.092;11.842;2023-07-29T07:36:18;95134.28;;;21.46;69.85
30682;BME280;17439;48.092;11.842;2023-07-29T07:38:44;95126.78;;;21.47;70.02
30682;BME280;17439;48.092;11.842;2023-07-29T07:41:11;95137.81;;;21.47;69.90
30682;BME280;17439;48.092;11.842;2023-07-29T07:43:37;95132.31;;;21.50;70.11
30682;BME280;17439;48.092;11.842;2023-07-29T07:46:05;95130.38;;;21.51;70.50
30682;BME280;17439;48.092;11.842;2023-07-29T07:48:32;95112.28;;;21.57;70.76
30682;BME280;17439;48.092;11.842;2023-07-29T07:50:58;95111.88;;;21.69;73.34
30682;BME280;17439;48.092;11.842;2023-07-29T07:53:25;95110.72;;;21.74;73.74
30682;BME280;17439;48.092;11.842;2023-07-29T07:55:52;95098.13;;;21.77;74.24
30682;BME280;17439;48.092;11.842;2023-07-29T07:58:19;95096.94;;;21.78;74.43
30682;BME280;17439;48.092;11.842;2023-07-29T08:00:45;95088.25;;;21.76;75.17
30682;BME280;17439;48.092;11.842;2023-07-29T08:03:15;95066.59;;;21.74;75.20
30682;BME280;17439;48.092;11.842;2023-07-29T08:05:42;95057.53;;;21.73;75.72
30682;BME280;17439;48.092;11.842;2023-07-29T08:08:08;95066.19;;;21.72;75.97
30682;BME280;17439;48.092;11.842;2023-07-29T08:10:35;95076.44;;;21.71;76.49
30682;BME280;17439;48.092;11.842;2023-07-29T08:13:02;95080.00;;;21.72;77.38
30682;BME280;17439;48.092;11.842;2023-07-29T08:15:29;95071.31;;;21.73;77.77
30682;BME280;17439;48.092;11.842;2023-07-29T08:17:55;95072.50;;;21.76;77.89
30682;BME280;17439;48.092;11.842;2023-07-29T08:20:22;95076.44;;;21.79;78.18
30682;BME280;17439;48.092;11.842;2023-07-29T08:22:49;95079.59;;;21.81;78.21
30682;BME280;17439;48.092;11.842;2023-07-29T08:25:16;95069.34;;;21.85;78.72
30682;BME280;17439;48.092;11.842;2023-07-29T08:27:42;95071.72;;;21.90;78.99
30682;BME280;17439;48.092;11.842;2023-07-29T08:30:09;95074.88;;;21.96;79.51
30682;BME280;17439;48.092;11.842;2023-07-29T08:32:36;95079.63;;;22.02;79.77
30682;BME280;17439;48.092;11.842;2023-07-29T08:35:03;95068.16;;;22.11;80.06
30682;BME280;17439;48.092;11.842;2023-07-29T08:37:30;95068.56;;;22.20;80.77
30682;BME280;17439;48.092;11.842;2023-07-29T08:39:56;95067.38;;;22.28;81.13
30682;BME280;17439;48.092;11.842;2023-07-29T08:42:28;95072.91;;;22.39;81.26
30682;BME280;17439;48.092;11.842;2023-07-29T08:44:55;95074.88;;;22.50;81.53
30682;BME280;17439;48.092;11.842;2023-07-29T08:47:22;95072.50;;;22.62;81.88
30682;BME280;17439;48.092;11.842;2023-07-29T08:49:50;95076.78;;;22.74;82.00
30682;BME280;17439;48.092;11.842;2023-07-29T08:52:18;95072.81;;;22.86;81.89
30682;BME280;17439;48.092;11.842;2023-07-29T08:54:46;95074.00;;;22.78;81.46
30682;BME280;17439;48.092;11.842;2023-07-29T08:57:13;95070.78;;;23.01;81.95
30682;BME280;17439;48.092;11.842;2023-07-29T08:59:40;95081.03;;;23.15;81.44
30682;BME280;17439;48.092;11.842;2023-07-29T09:02:08;95068.34;;;23.25;81.37
30682;BME280;17439;48.092;11.842;2023-07-29T09:04:35;95065.94;;;23.34;81.09
30682;BME280;17439;48.092;11.842;2023-07-29T09:07:02;95079.31;;;23.43;81.35
30682;BME280;17439;48.092;11.842;2023-07-29T09:09:29;95078.47;;;23.49;80.88
30682;BME280;17439;48.092;11.842;2023-07-29T09:11:56;95067.00;;;23.58;81.46
30682;BME280;17439;48.092;11.842;2023-07-29T09:14:23;95064.97;;;23.66;81.63
30682;BME280;17439;48.092;11.842;2023-07-29T09:16:50;95061.72;;;23.75;81.73
30682;BME280;17439;48.092;11.842;2023-07-29T09:19:18;95062.88;;;23.84;82.05
30682;BME280;17439;48.092;11.842;2023-07-29T09:21:46;95079.00;;;23.97;81.93
30682;BME280;17439;48.092;11.842;2023-07-29T09:24:16;95069.06;;;24.03;81.64
30682;BME280;17439;48.092;11.842;2023-07-29T09:26:51;95079.69;;;24.12;81.75
30682;BME280;17439;48.092;11.842;2023-07-29T09:29:22;95071.72;;;24.17;81.30
30682;BME280;17439;48.092;11.842;2023-07-29T09:31:49;95076.41;;;24.24;80.99
30682;BME280;17439;48.092;11.842;2023-07-29T09:34:15;95068.88;;;24.28;81.09
30682;BME280;17439;48.092;11.842;2023-07-29T09:36:42;95064.88;;;24.33;80.98
30682;BME280;17439;48.092;11.842;2023-07-29T09:39:12;95070.78;;;24.35;80.59
30682;BME280;17439;48.092;11.842;2023-07-29T09:41:39;95073.50;;;24.38;80.69
30682;BME280;17439;48.092;11.842;2023-07-29T09:44:06;95074.28;;;24.42;80.39
30682;BME280;17439;48.092;11.842;2023-07-29T09:46:35;95068.34;;;24.44;80.54
30682;BME280;17439;48.092;11.842;2023-07-29T09:49:04;95079.72;;;24.50;81.33
30682;BME280;17439;48.092;11.842;2023-07-29T09:51:31;95065.84;;;24.57;81.82
30682;BME280;17439;48.092;11.842;2023-07-29T09:54:02;95069.72;;;24.67;82.24
30682;BME280;17439;48.092;11.842;2023-07-29T09:56:29;95066.06;;;24.77;82.76
30682;BME280;17439;48.092;11.842;2023-07-29T09:58:57;95060.78;;;24.86;83.23
30682;BME280;17439;48.092;11.842;2023-07-29T10:01:24;95067.00;;;24.97;82.98
30682;BME280;17439;48.092;11.842;2023-07-29T10:03:51;95061.31;;;25.08;83.00
30682;BME280;17439;48.092;11.842;2023-07-29T10:06:18;95061.56;;;25.21;83.63
30682;BME280;17439;48.092;11.842;2023-07-29T10:08:46;95062.97;;;25.37;83.34
30682;BME280;17439;48.092;11.842;2023-07-29T10:11:14;95057.66;;;25.49;83.54
30682;BME280;17439;48.092;11.842;2023-07-29T10:13:42;95070.97;;;25.62;83.00
30682;BME280;17439;48.092;11.842;2023-07-29T10:16:18;95067.63;;;25.74;82.49
30682;BME280;17439;48.092;11.842;2023-07-29T10:18:46;95054.78;;;25.84;82.12
30682;BME280;17439;48.092;11.842;2023-07-29T10:21:13;95039.59;;;25.92;81.41
30682;BME280;17439;48.092;11.842;2023-07-29T10:23:43;95044.19;;;26.02;81.10
30682;BME280;17439;48.092;11.842;2023-07-29T10:26:13;95045.69;;;26.11;81.17
30682;BME280;17439;48.092;11.842;2023-07-29T10:28:46;95039.22;;;26.17;80.74
30682;BME280;17439;48.092;11.842;2023-07-29T10:31:15;95037.03;;;26.29;81.04
30682;BME280;17439;48.092;11.842;2023-07-29T10:33:42;95033.34;;;26.35;80.51
30682;BME280;17439;48.092;11.842;2023-07-29T10:36:11;95047.47;;;26.45;80.90
30682;BME280;17439;48.092;11.842;2023-07-29T10:38:38;95037.88;;;26.49;80.52
30682;BME280;17439;48.092;11.842;2023-07-29T10:41:05;95024.25;;;26.55;80.74
30682;BME280;17439;48.092;11.842;2023-07-29T10:43:38;95032.91;;;26.60;80.43
30682;BME280;17439;48.092;11.842;2023-07-29T10:46:21;95031.66;;;26.65;80.24
30682;BME280;17439;48.092;11.842;2023-07-29T10:48:53;95008.91;;;26.70;79.28
30682;BME280;17439;48.092;11.842;2023-07-29T10:51:36;95005.72;;;26.72;79.59
30682;BME280;17439;48.092;11.842;2023-07-29T10:54:10;95004.00;;;26.78;79.66
30682;BME280;17439;48.092;11.842;2023-07-29T10:56:41;95000.28;;;26.85;79.92
30682;BME280;17439;48.092;11.842;2023-07-29T11:01:42;95011.53;;;26.97;80.19
30682;BME280;17439;48.092;11.842;2023-07-29T11:04:23;94998.03;;;27.00;79.47
30682;BME280;17439;48.092;11.842;2023-07-29T11:12:49;94995.00;;;27.10;77.14
30682;BME280;17439;48.092;11.842;2023-07-29T11:15:27;94997.56;;;27.21;76.38
30682;BME280;17439;48.092;11.842;2023-07-29T11:17:57;94993.81;;;27.28;77.15
30682;BME280;17439;48.092;11.842;2023-07-29T11:20:33;94991.34;;;27.33;74.30
30682;BME280;17439;48.092;11.842;2023-07-29T11:23:02;95004.94;;;27.48;79.55
30682;BME280;17439;48.092;11.842;2023-07-29T11:25:30;95010.91;;;27.66;79.89
30682;BME280;17439;48.092;11.842;2023-07-29T11:27:58;95012.13;;;27.82;79.80
30682;BME280;17439;48.092;11.842;2023-07-29T11:30:29;94992.38;;;27.93;78.29
30682;BME280;17439;48.092;11.842;2023-07-29T11:32:57;94983.06;;;27.99;76.24
30682;BME280;17439;48.092;11.842;2023-07-29T11:35:25;94996.31;;;28.12;73.62
30682;BME280;17439;48.092;11.842;2023-07-29T11:37:54;94996.91;;;28.19;70.58
30682;BME280;17439;48.092;11.842;2023-07-29T11:40:22;94998.38;;;28.24;73.48
30682;BME280;17439;48.092;11.842;2023-07-29T11:42:50;95008.91;;;28.33;72.24
30682;BME280;17439;48.092;11.842;2023-07-29T11:45:18;95003.31;;;28.33;69.01
30682;BME280;17439;48.092;11.842;2023-07-29T11:47:46;95019.19;;;28.36;63.65
30682;BME280;17439;48.092;11.842;2023-07-29T11:50:14;95021.53;;;28.37;55.94
30682;BME280;17439;48.092;11.842;2023-07-29T11:52:42;95041.16;;;28.17;56.58
30682;BME280;17439;48.092;11.842;2023-07-29T11:55:11;95033.31;;;27.96;59.32
30682;BME280;17439;48.092;11.842;2023-07-29T11:57:39;95023.44;;;27.75;56.62
30682;BME280;17439;48.092;11.842;2023-07-29T12:00:06;95018.94;;;27.44;57.61
30682;BME280;17439;48.092;11.842;2023-07-29T12:02:38;95034.66;;;27.35;57.90
30682;BME280;17439;48.092;11.842;2023-07-29T12:05:07;95021.66;;;27.28;56.47
30682;BME280;17439;48.092;11.842;2023-07-29T12:07:35;95004.25;;;27.24;54.68
30682;BME280;17439;48.092;11.842;2023-07-29T12:10:03;95012.75;;;27.17;59.39
30682;BME280;17439;48.092;11.842;2023-07-29T12:12:30;95006.19;;;27.07;58.97
30682;BME280;17439;48.092;11.842;2023-07-29T12:14:57;94996.91;;;27.13;55.11
30682;BME280;17439;48.092;11.842;2023-07-29T12:17:23;94997.00;;;27.10;58.92
30682;BME280;17439;48.092;11.842;2023-07-29T12:19:54;94991.56;;;27.03;57.47
30682;BME280;17439;48.092;11.842;2023-07-29T12:22:21;94984.47;;;27.02;55.61
30682;BME280;17439;48.092;11.842;2023-07-29T12:24:50;94974.53;;;27.01;56.15
30682;BME280;17439;48.092;11.842;2023-07-29T12:27:18;94973.16;;;27.09;52.41
30682;BME280;17439;48.092;11.842;2023-07-29T12:29:44;94990.66;;;27.09;56.23
30682;BME280;17439;48.092;11.842;2023-07-29T12:32:11;94974.53;;;27.21;51.26
30682;BME280;17439;48.092;11.842;2023-07-29T12:34:38;94979.72;;;27.39;48.87
30682;BME280;17439;48.092;11.842;2023-07-29T12:37:06;94963.09;;;27.35;55.44
30682;BME280;17439;48.092;11.842;2023-07-29T12:39:34;94980.44;;;27.23;59.63
30682;BME280;17439;48.092;11.842;2023-07-29T12:42:02;94965.78;;;27.39;58.59
30682;BME280;17439;48.092;11.842;2023-07-29T12:44:31;94963.88;;;27.52;55.34
30682;BME280;17439;48.092;11.842;2023-07-29T12:46:59;94960.78;;;27.66;53.06
30682;BME280;17439;48.092;11.842;2023-07-29T12:49:25;94955.81;;;27.74;53.90
30682;BME280;17439;48.092;11.842;2023-07-29T12:51:52;94965.16;;;27.84;50.94
30682;BME280;17439;48.092;11.842;2023-07-29T12:54:19;94965.38;;;27.90;51.63
30682;BME280;17439;48.092;11.842;2023-07-29T12:56:46;94970.09;;;27.93;51.89
30682;BME280;17439;48.092;11.842;2023-07-29T12:59:12;94972.09;;;27.92;52.37
30682;BME280;17439;48.092;11.842;2023-07-29T13:01:39;94958.94;;;27.93;51.66
30682;BME280;17439;48.092;11.842;2023-07-29T13:04:06;94948.19;;;27.95;50.02
30682;BME280;17439;48.092;11.842;2023-07-29T13:06:32;94937.88;;;27.92;50.70